sensor_id;sensor_type;location;lat;lon;timestamp;pressure;altitude;pressure_sealevel;temperature;humidity
59329;BME280;45100;46.926;7.452;2023-06-14T00:00:35;94616.97;;;19.19;33.92
59329;BME280;45100;46.926;7.452;2023-06-14T00:03:05;94615.53;;;19.12;33.66
59329;BME280;45100;46.926;7.452;2023-06-14T00:05:41;94613.45;;;19.05;34.78
59329;BME280;45100;46.926;7.452;2023-06-14T00:08:08;94614.05;;;19.00;35.08
59329;BME280;45100;46.926;7.452;2023-06-14T00:10:36;94615.24;;;18.98;35.59
59329;BME280;45100;46.926;7.452;2023-06-14T00:13:05;94612.82;;;18.97;34.85
59329;BME280;45100;46.926;7.452;2023-06-14T00:18:12;94618.05;;;18.87;34.35
59329;BME280;45100;46.926;7.452;2023-06-14T00:20:40;94614.56;;;18.82;35.18
59329;BME280;45100;46.926;7.452;2023-06-14T00:23:08;94617.03;;;18.75;34.94
59329;BME280;45100;46.926;7.452;2023-06-14T00:25:40;94615.64;;;18.71;35.63
59329;BME280;45100;46.926;7.452;2023-06-14T00:28:09;94618.28;;;18.66;35.19
59329;BME280;45100;46.926;7.452;2023-06-14T00:30:40;94617.03;;;18.61;35.17
59329;BME280;45100;46.926;7.452;2023-06-14T00:33:11;94616.28;;;18.57;35.72
59329;BME280;45100;46.926;7.452;2023-06-14T00:35:42;94614.21;;;18.53;36.36
59329;BME280;45100;46.926;7.452;2023-06-14T00:38:13;94613.80;;;18.48;35.41
59329;BME280;45100;46.926;7.452;2023-06-14T00:40:43;94618.36;;;18.42;35.59
59329;BME280;45100;46.926;7.452;2023-06-14T00:43:13;94619.31;;;18.36;35.89
59329;BME280;45100;46.926;7.452;2023-06-14T00:45:45;94616.56;;;18.29;36.81
59329;BME280;45100;46.926;7.452;2023-06-14T00:50:50;94622.86;;;18.14;36.94
59329;BME280;45100;46.926;7.452;2023-06-14T00:53:19;94622.17;;;18.09;37.48
59329;BME280;45100;46.926;7.452;2023-06-14T00:55:49;94620.49;;;18.06;38.18
59329;BME280;45100;46.926;7.452;2023-06-14T01:00:55;94616.62;;;17.99;37.22
59329;BME280;45100;46.926;7.452;2023-06-14T01:03:25;94617.03;;;17.96;37.22
59329;BME280;45100;46.926;7.452;2023-06-14T01:06:05;94611.30;;;17.94;37.64
59329;BME280;45100;46.926;7.452;2023-06-14T01:08:47;94612.15;;;17.90;36.90
59329;BME280;45100;46.926;7.452;2023-06-14T01:11:22;94617.33;;;17.88;36.66
59329;BME280;45100;46.926;7.452;2023-06-14T01:13:38;94615.95;;;17.87;36.90
59329;BME280;45100;46.926;7.452;2023-06-14T01:15:56;94615.03;;;17.82;36.49
59329;BME280;45100;46.926;7.452;2023-06-14T01:18:28;94614.64;;;17.74;37.10
59329;BME280;45100;46.926;7.452;2023-06-14T01:20:57;94615.28;;;17.65;37.09
59329;BME280;45100;46.926;7.452;2023-06-14T01:23:33;94618.17;;;17.60;37.88
59329;BME280;45100;46.926;7.452;2023-06-14T01:25:58;94622.05;;;17.58;38.22
59329;BME280;45100;46.926;7.452;2023-06-14T01:28:35;94621.72;;;17.59;37.75
59329;BME280;45100;46.926;7.452;2023-06-14T01:31:06;94625.48;;;17.59;37.09
59329;BME280;45100;46.926;7.452;2023-06-14T01:38:39;94630.86;;;17.45;37.52
59329;BME280;45100;46.926;7.452;2023-06-14T01:41:10;94631.75;;;17.40;38.57
59329;BME280;45100;46.926;7.452;2023-06-14T01:46:15;94628.60;;;17.36;38.18
59329;BME280;45100;46.926;7.452;2023-06-14T01:48:44;94627.55;;;17.33;38.52
59329;BME280;45100;46.926;7.452;2023-06-14T01:51:14;94631.98;;;17.31;38.67
59329;BME280;45100;46.926;7.452;2023-06-14T01:53:47;94628.20;;;17.27;38.57
59329;BME280;45100;46.926;7.452;2023-06-14T01:56:16;94627.08;;;17.22;38.96
59329;BME280;45100;46.926;7.452;2023-06-14T01:58:47;94622.81;;;17.19;38.87
59329;BME280;45100;46.926;7.452;2023-06-14T02:01:17;94623.22;;;17.17;39.76
59329;BME280;45100;46.926;7.452;2023-06-14T02:06:21;94627.45;;;17.12;39.04
59329;BME280;45100;46.926;7.452;2023-06-14T02:08:51;94626.61;;;17.08;40.37
59329;BME280;45100;46.926;7.452;2023-06-14T02:11:22;94624.36;;;17.03;39.47
59329;BME280;45100;46.926;7.452;2023-06-14T02:13:53;94627.38;;;17.02;39.57
59329;BME280;45100;46.926;7.452;2023-06-14T02:16:25;94630.84;;;16.97;39.42
59329;BME280;45100;46.926;7.452;2023-06-14T02:18:54;94629.41;;;16.94;41.43
59329;BME280;45100;46.926;7.452;2023-06-14T02:21:25;94630.41;;;16.89;39.69
59329;BME280;45100;46.926;7.452;2023-06-14T02:23:55;94628.00;;;16.85;39.85
59329;BME280;45100;46.926;7.452;2023-06-14T02:26:29;94624.60;;;16.80;39.58
59329;BME280;45100;46.926;7.452;2023-06-14T02:28:56;94626.28;;;16.76;39.61
59329;BME280;45100;46.926;7.452;2023-06-14T02:31:28;94625.53;;;16.69;39.58
59329;BME280;45100;46.926;7.452;2023-06-14T02:33:57;94627.17;;;16.61;40.77
59329;BME280;45100;46.926;7.452;2023-06-14T02:36:31;94629.36;;;16.55;40.65
59329;BME280;45100;46.926;7.452;2023-06-14T02:38:59;94629.41;;;16.51;41.35
59329;BME280;45100;46.926;7.452;2023-06-14T02:41:30;94628.09;;;16.49;40.70
59329;BME280;45100;46.926;7.452;2023-06-14T02:44:00;94631.81;;;16.49;41.01
59329;BME280;45100;46.926;7.452;2023-06-14T02:46:30;94633.35;;;16.45;40.90
59329;BME280;45100;46.926;7.452;2023-06-14T02:49:01;94639.23;;;16.40;41.01
59329;BME280;45100;46.926;7.452;2023-06-14T02:51:32;94640.79;;;16.35;41.04
59329;BME280;45100;46.926;7.452;2023-06-14T02:54:03;94638.81;;;16.30;41.72
59329;BME280;45100;46.926;7.452;2023-06-14T02:56:34;94637.12;;;16.28;41.23
59329;BME280;45100;46.926;7.452;2023-06-14T02:59:05;94641.71;;;16.26;42.04
59329;BME280;45100;46.926;7.452;2023-06-14T03:01:36;94644.44;;;16.24;42.03
59329;BME280;45100;46.926;7.452;2023-06-14T03:04:06;94651.06;;;16.22;41.79
59329;BME280;45100;46.926;7.452;2023-06-14T03:06:37;94652.38;;;16.19;41.34
59329;BME280;45100;46.926;7.452;2023-06-14T03:09:10;94652.07;;;16.16;41.65
59329;BME280;45100;46.926;7.452;2023-06-14T03:11:37;94653.77;;;16.14;41.14
59329;BME280;45100;46.926;7.452;2023-06-14T03:14:09;94653.30;;;16.11;41.19
59329;BME280;45100;46.926;7.452;2023-06-14T03:16:39;94656.80;;;16.06;41.46
59329;BME280;45100;46.926;7.452;2023-06-14T03:19:08;94660.03;;;16.00;43.18
59329;BME280;45100;46.926;7.452;2023-06-14T03:21:45;94658.57;;;15.95;42.49
59329;BME280;45100;46.926;7.452;2023-06-14T03:24:10;94657.12;;;15.93;44.79
59329;BME280;45100;46.926;7.452;2023-06-14T03:26:41;94658.76;;;15.90;44.30
59329;BME280;45100;46.926;7.452;2023-06-14T03:29:11;94659.16;;;15.88;43.62
59329;BME280;45100;46.926;7.452;2023-06-14T03:31:59;94660.66;;;15.87;43.51
59329;BME280;45100;46.926;7.452;2023-06-14T03:34:12;94664.30;;;15.86;44.09
59329;BME280;45100;46.926;7.452;2023-06-14T03:36:42;94671.70;;;15.85;45.34
59329;BME280;45100;46.926;7.452;2023-06-14T03:39:13;94665.94;;;15.83;45.56
59329;BME280;45100;46.926;7.452;2023-06-14T03:41:44;94669.05;;;15.82;45.04
59329;BME280;45100;46.926;7.452;2023-06-14T03:44:16;94668.88;;;15.80;44.38
59329;BME280;45100;46.926;7.452;2023-06-14T03:46:46;94675.08;;;15.77;44.75
59329;BME280;45100;46.926;7.452;2023-06-14T03:49:18;94674.77;;;15.74;45.20
59329;BME280;45100;46.926;7.452;2023-06-14T03:51:51;94676.34;;;15.72;45.96
59329;BME280;45100;46.926;7.452;2023-06-14T03:54:17;94681.39;;;15.71;46.01
59329;BME280;45100;46.926;7.452;2023-06-14T03:56:48;94677.88;;;15.70;46.26
59329;BME280;45100;46.926;7.452;2023-06-14T03:59:19;94680.89;;;15.78;46.11
59329;BME280;45100;46.926;7.452;2023-06-14T04:01:49;94679.23;;;16.04;44.91
59329;BME280;45100;46.926;7.452;2023-06-14T04:04:22;94684.41;;;16.50;44.59
59329;BME280;45100;46.926;7.452;2023-06-14T04:06:51;94685.45;;;17.06;43.52
59329;BME280;45100;46.926;7.452;2023-06-14T04:09:20;94688.66;;;17.67;42.31
59329;BME280;45100;46.926;7.452;2023-06-14T04:11:52;94692.44;;;18.30;40.99
59329;BME280;45100;46.926;7.452;2023-06-14T04:14:22;94692.64;;;18.90;40.13
59329;BME280;45100;46.926;7.452;2023-06-14T04:16:53;94695.52;;;19.47;39.29
59329;BME280;45100;46.926;7.452;2023-06-14T04:19:23;94693.05;;;20.02;38.62
59329;BME280;45100;46.926;7.452;2023-06-14T04:21:54;94693.95;;;20.56;37.32
59329;BME280;45100;46.926;7.452;2023-06-14T04:24:32;94688.78;;;21.05;36.84
59329;BME280;45100;46.926;7.452;2023-06-14T04:26:55;94696.97;;;21.49;35.82
59329;BME280;45100;46.926;7.452;2023-06-14T04:29:30;94694.48;;;21.93;35.36
59329;BME280;45100;46.926;7.452;2023-06-14T04:32:03;94698.57;;;22.33;34.67
59329;BME280;45100;46.926;7.452;2023-06-14T04:34:33;94700.21;;;22.70;34.81
59329;BME280;45100;46.926;7.452;2023-06-14T04:37:00;94701.23;;;23.14;33.82
59329;BME280;45100;46.926;7.452;2023-06-14T04:39:28;94702.59;;;23.59;33.53
59329;BME280;45100;46.926;7.452;2023-06-14T04:42:01;94703.69;;;24.08;32.20
59329;BME280;45100;46.926;7.452;2023-06-14T04:44:32;94701.88;;;24.52;31.43
59329;BME280;45100;46.926;7.452;2023-06-14T04:47:00;94701.45;;;24.88;30.74
59329;BME280;45100;46.926;7.452;2023-06-14T04:49:34;94701.97;;;25.12;30.32
59329;BME280;45100;46.926;7.452;2023-06-14T04:52:04;94707.14;;;25.32;30.14
59329;BME280;45100;46.926;7.452;2023-06-14T04:57:17;94712.05;;;25.72;29.03
59329;BME280;45100;46.926;7.452;2023-06-14T04:59:41;94712.34;;;25.89;28.46
59329;BME280;45100;46.926;7.452;2023-06-14T05:02:12;94707.67;;;26.00;28.51
59329;BME280;45100;46.926;7.452;2023-06-14T05:04:43;94707.16;;;26.15;28.20
59329;BME280;45100;46.926;7.452;2023-06-14T05:07:15;94709.95;;;26.26;28.46
59329;BME280;45100;46.926;7.452;2023-06-14T05:09:44;94709.62;;;26.35;28.76
59329;BME280;45100;46.926;7.452;2023-06-14T05:12:18;94712.78;;;26.50;28.70
59329;BME280;45100;46.926;7.452;2023-06-14T05:14:45;94711.05;;;26.66;28.10
59329;BME280;45100;46.926;7.452;2023-06-14T05:17:17;94714.23;;;26.78;28.33
59329;BME280;45100;46.926;7.452;2023-06-14T05:19:46;94717.23;;;26.88;27.98
59329;BME280;45100;46.926;7.452;2023-06-14T05:22:17;94719.78;;;26.86;27.84
59329;BME280;45100;46.926;7.452;2023-06-14T05:24:48;94716.33;;;26.82;27.99
59329;BME280;45100;46.926;7.452;2023-06-14T05:27:18;94721.69;;;26.80;28.00
59329;BME280;45100;46.926;7.452;2023-06-14T05:29:50;94717.14;;;26.72;28.58
59329;BME280;45100;46.926;7.452;2023-06-14T05:34:53;94714.53;;;26.60;28.37
59329;BME280;45100;46.926;7.452;2023-06-14T05:37:23;94721.39;;;26.53;28.73
59329;BME280;45100;46.926;7.452;2023-06-14T05:39:54;94721.11;;;26.50;28.58
59329;BME280;45100;46.926;7.452;2023-06-14T05:42:25;94725.08;;;26.36;28.55
59329;BME280;45100;46.926;7.452;2023-06-14T05:44:56;94725.41;;;25.87;29.54
59329;BME280;45100;46.926;7.452;2023-06-14T05:47:28;94728.98;;;25.28;29.71
59329;BME280;45100;46.926;7.452;2023-06-14T05:49:57;94731.65;;;24.63;30.70
59329;BME280;45100;46.926;7.452;2023-06-14T05:52:28;94734.44;;;23.95;32.67
59329;BME280;45100;46.926;7.452;2023-06-14T05:54:58;94734.80;;;23.33;32.63
59329;BME280;45100;46.926;7.452;2023-06-14T05:57:29;94735.37;;;22.77;33.48
59329;BME280;45100;46.926;7.452;2023-06-14T06:00:00;94737.86;;;22.25;35.25
59329;BME280;45100;46.926;7.452;2023-06-14T06:02:30;94740.11;;;21.79;35.06
59329;BME280;45100;46.926;7.452;2023-06-14T06:05:01;94737.59;;;21.35;35.87
59329;BME280;45100;46.926;7.452;2023-06-14T06:07:31;94741.20;;;21.01;37.12
59329;BME280;45100;46.926;7.452;2023-06-14T06:10:02;94743.86;;;20.77;37.29
59329;BME280;45100;46.926;7.452;2023-06-14T06:12:33;94746.64;;;20.61;37.50
59329;BME280;45100;46.926;7.452;2023-06-14T06:15:03;94749.14;;;20.47;37.78
59329;BME280;45100;46.926;7.452;2023-06-14T06:17:33;94751.58;;;20.37;37.73
59329;BME280;45100;46.926;7.452;2023-06-14T06:20:05;94756.11;;;20.32;36.86
59329;BME280;45100;46.926;7.452;2023-06-14T06:22:35;94759.34;;;20.28;36.12
59329;BME280;45100;46.926;7.452;2023-06-14T06:25:06;94760.38;;;20.17;36.85
59329;BME280;45100;46.926;7.452;2023-06-14T06:27:38;94759.30;;;20.07;37.11
59329;BME280;45100;46.926;7.452;2023-06-14T06:30:07;94758.88;;;20.03;37.04
59329;BME280;45100;46.926;7.452;2023-06-14T06:32:36;94758.25;;;20.06;36.79
59329;BME280;45100;46.926;7.452;2023-06-14T06:35:09;94761.88;;;20.09;36.06
59329;BME280;45100;46.926;7.452;2023-06-14T06:37:37;94764.38;;;20.17;35.99
59329;BME280;45100;46.926;7.452;2023-06-14T06:40:09;94766.51;;;20.29;36.13
59329;BME280;45100;46.926;7.452;2023-06-14T06:45:11;94769.88;;;20.48;35.26
59329;BME280;45100;46.926;7.452;2023-06-14T06:47:41;94774.44;;;20.58;35.40
59329;BME280;45100;46.926;7.452;2023-06-14T06:50:12;94774.36;;;20.71;34.55
59329;BME280;45100;46.926;7.452;2023-06-14T06:52:43;94770.82;;;20.78;34.66
59329;BME280;45100;46.926;7.452;2023-06-14T06:55:14;94773.50;;;20.84;35.36
59329;BME280;45100;46.926;7.452;2023-06-14T06:57:44;94771.73;;;20.92;34.28
59329;BME280;45100;46.926;7.452;2023-06-14T07:00:15;94767.84;;;20.97;33.78
59329;BME280;45100;46.926;7.452;2023-06-14T07:02:45;94768.33;;;21.05;34.32
59329;BME280;45100;46.926;7.452;2023-06-14T07:05:16;94773.32;;;21.20;33.25
59329;BME280;45100;46.926;7.452;2023-06-14T07:07:47;94773.45;;;21.28;33.18
59329;BME280;45100;46.926;7.452;2023-06-14T07:10:19;94774.86;;;21.34;33.38
59329;BME280;45100;46.926;7.452;2023-06-14T07:12:48;94779.22;;;21.44;33.49
59329;BME280;45100;46.926;7.452;2023-06-14T07:15:19;94774.88;;;21.58;33.56
59329;BME280;45100;46.926;7.452;2023-06-14T07:17:51;94775.01;;;21.73;33.06
59329;BME280;45100;46.926;7.452;2023-06-14T07:20:25;94778.09;;;21.87;32.45
59329;BME280;45100;46.926;7.452;2023-06-14T07:22:51;94776.94;;;21.87;32.07
59329;BME280;45100;46.926;7.452;2023-06-14T07:27:56;94773.70;;;21.80;31.44
59329;BME280;45100;46.926;7.452;2023-06-14T07:30:27;94776.36;;;21.85;31.56
59329;BME280;45100;46.926;7.452;2023-06-14T07:32:56;94777.20;;;21.96;32.85
59329;BME280;45100;46.926;7.452;2023-06-14T07:35:27;94778.05;;;22.08;31.19
59329;BME280;45100;46.926;7.452;2023-06-14T07:37:57;94779.66;;;22.05;31.47
59329;BME280;45100;46.926;7.452;2023-06-14T07:40:28;94782.67;;;22.00;31.99
59329;BME280;45100;46.926;7.452;2023-06-14T07:42:59;94781.80;;;21.98;32.09
59329;BME280;45100;46.926;7.452;2023-06-14T07:45:29;94788.64;;;21.99;32.42
59329;BME280;45100;46.926;7.452;2023-06-14T07:48:00;94789.03;;;21.98;32.92
59329;BME280;45100;46.926;7.452;2023-06-14T07:50:30;94789.77;;;22.02;32.65
59329;BME280;45100;46.926;7.452;2023-06-14T07:53:00;94792.94;;;21.98;32.41
59329;BME280;45100;46.926;7.452;2023-06-14T07:55:37;94788.88;;;21.89;32.58
59329;BME280;45100;46.926;7.452;2023-06-14T07:58:02;94787.94;;;21.91;33.03
59329;BME280;45100;46.926;7.452;2023-06-14T08:00:32;94789.23;;;22.01;32.90
59329;BME280;45100;46.926;7.452;2023-06-14T08:03:03;94784.70;;;22.05;32.50
59329;BME280;45100;46.926;7.452;2023-06-14T08:05:33;94779.48;;;22.07;32.31
59329;BME280;45100;46.926;7.452;2023-06-14T08:08:03;94782.20;;;22.12;32.29
59329;BME280;45100;46.926;7.452;2023-06-14T08:10:33;94778.77;;;22.14;32.16
59329;BME280;45100;46.926;7.452;2023-06-14T08:13:04;94778.72;;;22.13;32.47
59329;BME280;45100;46.926;7.452;2023-06-14T08:15:34;94780.11;;;22.22;32.00
59329;BME280;45100;46.926;7.452;2023-06-14T08:20:38;94783.41;;;22.42;31.65
59329;BME280;45100;46.926;7.452;2023-06-14T08:23:10;94781.39;;;22.52;31.41
59329;BME280;45100;46.926;7.452;2023-06-14T08:25:38;94783.79;;;22.61;31.12
59329;BME280;45100;46.926;7.452;2023-06-14T08:28:09;94784.06;;;22.59;30.56
59329;BME280;45100;46.926;7.452;2023-06-14T08:30:41;94785.70;;;22.60;30.82
59329;BME280;45100;46.926;7.452;2023-06-14T08:33:10;94784.18;;;22.75;31.00
59329;BME280;45100;46.926;7.452;2023-06-14T08:35:41;94789.75;;;22.98;30.28
59329;BME280;45100;46.926;7.452;2023-06-14T08:38:11;94787.61;;;23.18;30.08
59329;BME280;45100;46.926;7.452;2023-06-14T08:40:42;94785.80;;;23.27;29.40
59329;BME280;45100;46.926;7.452;2023-06-14T08:43:12;94784.72;;;23.29;29.71
59329;BME280;45100;46.926;7.452;2023-06-14T08:45:46;94783.16;;;23.31;29.54
59329;BME280;45100;46.926;7.452;2023-06-14T08:48:18;94780.05;;;23.43;29.44
59329;BME280;45100;46.926;7.452;2023-06-14T08:50:44;94781.20;;;23.51;29.31
59329;BME280;45100;46.926;7.452;2023-06-14T08:53:21;94782.23;;;23.53;28.93
59329;BME280;45100;46.926;7.452;2023-06-14T08:55:45;94777.68;;;23.57;30.41
59329;BME280;45100;46.926;7.452;2023-06-14T08:58:16;94788.75;;;23.69;29.17
59329;BME280;45100;46.926;7.452;2023-06-14T09:00:47;94783.38;;;23.66;29.03
59329;BME280;45100;46.926;7.452;2023-06-14T09:03:18;94780.72;;;23.67;29.76
59329;BME280;45100;46.926;7.452;2023-06-14T09:05:48;94786.61;;;23.82;29.08
59329;BME280;45100;46.926;7.452;2023-06-14T09:08:22;94787.28;;;23.95;28.93
59329;BME280;45100;46.926;7.452;2023-06-14T09:10:48;94790.67;;;24.00;29.00
59329;BME280;45100;46.926;7.452;2023-06-14T09:13:19;94792.40;;;23.95;28.94
59329;BME280;45100;46.926;7.452;2023-06-14T09:15:50;94790.77;;;23.89;29.22
59329;BME280;45100;46.926;7.452;2023-06-14T09:18:22;94788.53;;;23.92;29.46
59329;BME280;45100;46.926;7.452;2023-06-14T09:20:51;94785.34;;;23.93;29.21
59329;BME280;45100;46.926;7.452;2023-06-14T09:23:22;94792.55;;;23.83;29.26
59329;BME280;45100;46.926;7.452;2023-06-14T09:25:52;94787.77;;;23.80;30.03
59329;BME280;45100;46.926;7.452;2023-06-14T09:28:26;94787.00;;;23.92;29.71
59329;BME280;45100;46.926;7.452;2023-06-14T09:30:54;94789.48;;;24.05;28.91
59329;BME280;45100;46.926;7.452;2023-06-14T09:33:25;94785.25;;;24.13;27.91
59329;BME280;45100;46.926;7.452;2023-06-14T09:35:54;94779.87;;;24.27;28.17
59329;BME280;45100;46.926;7.452;2023-06-14T09:38:24;94783.34;;;24.54;28.31
59329;BME280;45100;46.926;7.452;2023-06-14T09:40:57;94781.44;;;24.76;27.45
59329;BME280;45100;46.926;7.452;2023-06-14T09:43:28;94790.61;;;24.83;27.60
59329;BME280;45100;46.926;7.452;2023-06-14T09:45:56;94787.56;;;24.91;27.48
59329;BME280;45100;46.926;7.452;2023-06-14T09:53:35;94794.89;;;24.84;27.82
59329;BME280;45100;46.926;7.452;2023-06-14T09:56:05;94796.80;;;24.70;28.22
59329;BME280;45100;46.926;7.452;2023-06-14T09:58:35;94793.11;;;24.60;27.26
59329;BME280;45100;46.926;7.452;2023-06-14T10:01:08;94783.94;;;24.71;27.31
59329;BME280;45100;46.926;7.452;2023-06-14T10:03:35;94796.09;;;24.93;27.28
59329;BME280;45100;46.926;7.452;2023-06-14T10:08:40;94787.33;;;25.09;27.17
59329;BME280;45100;46.926;7.452;2023-06-14T10:11:09;94793.84;;;25.02;27.58
59329;BME280;45100;46.926;7.452;2023-06-14T10:13:39;94788.12;;;24.95;27.04
59329;BME280;45100;46.926;7.452;2023-06-14T10:16:16;94783.47;;;24.96;26.86
59329;BME280;45100;46.926;7.452;2023-06-14T10:23:44;94783.91;;;25.22;26.94
59329;BME280;45100;46.926;7.452;2023-06-14T10:26:19;94780.35;;;25.20;26.45
59329;BME280;45100;46.926;7.452;2023-06-14T10:28:56;94774.42;;;25.06;27.18
59329;BME280;45100;46.926;7.452;2023-06-14T10:31:14;94781.70;;;25.03;27.44
59329;BME280;45100;46.926;7.452;2023-06-14T10:33:52;94776.64;;;25.06;27.69
59329;BME280;45100;46.926;7.452;2023-06-14T10:36:27;94777.34;;;25.09;27.51
59329;BME280;45100;46.926;7.452;2023-06-14T10:41:17;94778.02;;;25.19;27.38
59329;BME280;45100;46.926;7.452;2023-06-14T10:43:47;94776.41;;;25.36;26.68
59329;BME280;45100;46.926;7.452;2023-06-14T10:46:28;94772.77;;;25.57;26.47
59329;BME280;45100;46.926;7.452;2023-06-14T10:48:48;94766.48;;;25.65;26.33
59329;BME280;45100;46.926;7.452;2023-06-14T10:51:21;94763.43;;;25.66;26.07
59329;BME280;45100;46.926;7.452;2023-06-14T10:53:50;94758.50;;;25.61;26.30
59329;BME280;45100;46.926;7.452;2023-06-14T10:56:26;94759.06;;;25.51;26.08
59329;BME280;45100;46.926;7.452;2023-06-14T10:58:51;94758.58;;;25.50;26.24
59329;BME280;45100;46.926;7.452;2023-06-14T11:01:33;94756.33;;;25.60;26.26
59329;BME280;45100;46.926;7.452;2023-06-14T11:03:52;94764.58;;;25.76;25.93
59329;BME280;45100;46.926;7.452;2023-06-14T11:06:22;94769.50;;;25.86;25.61
59329;BME280;45100;46.926;7.452;2023-06-14T11:11:22;94760.50;;;25.85;25.35
59329;BME280;45100;46.926;7.452;2023-06-14T11:13:53;94761.92;;;25.80;25.18
59329;BME280;45100;46.926;7.452;2023-06-14T11:16:25;94763.72;;;25.67;24.36
59329;BME280;45100;46.926;7.452;2023-06-14T11:18:54;94764.31;;;25.58;24.49
59329;BME280;45100;46.926;7.452;2023-06-14T11:21:34;94768.05;;;25.56;25.05
59329;BME280;45100;46.926;7.452;2023-06-14T11:23:57;94768.31;;;25.64;24.86
59329;BME280;45100;46.926;7.452;2023-06-14T11:26:31;94766.47;;;25.78;24.49
59329;BME280;45100;46.926;7.452;2023-06-14T11:28:59;94754.07;;;25.93;24.08
59329;BME280;45100;46.926;7.452;2023-06-14T11:31:28;94756.41;;;26.09;24.02
59329;BME280;45100;46.926;7.452;2023-06-14T11:33:59;94756.30;;;26.21;24.57
59329;BME280;45100;46.926;7.452;2023-06-14T11:36:33;94753.98;;;26.27;24.66
59329;BME280;45100;46.926;7.452;2023-06-14T11:39:06;94752.43;;;26.32;25.11
59329;BME280;45100;46.926;7.452;2023-06-14T11:41:40;94755.70;;;26.30;25.46
59329;BME280;45100;46.926;7.452;2023-06-14T11:46:31;94747.06;;;26.17;24.90
59329;BME280;45100;46.926;7.452;2023-06-14T11:49:06;94748.70;;;26.19;24.33
59329;BME280;45100;46.926;7.452;2023-06-14T11:51:34;94741.88;;;26.12;24.31
59329;BME280;45100;46.926;7.452;2023-06-14T11:54:05;94749.55;;;26.03;24.58
59329;BME280;45100;46.926;7.452;2023-06-14T11:56:36;94752.48;;;25.95;24.71
59329;BME280;45100;46.926;7.452;2023-06-14T11:59:06;94748.48;;;25.93;24.68
59329;BME280;45100;46.926;7.452;2023-06-14T12:04:08;94734.03;;;26.07;24.38
59329;BME280;45100;46.926;7.452;2023-06-14T12:06:40;94741.33;;;26.16;24.36
59329;BME280;45100;46.926;7.452;2023-06-14T12:11:59;94746.79;;;26.24;23.74
59329;BME280;45100;46.926;7.452;2023-06-14T12:14:28;94736.80;;;26.23;23.85
59329;BME280;45100;46.926;7.452;2023-06-14T12:17:04;94731.87;;;26.32;24.01
59329;BME280;45100;46.926;7.452;2023-06-14T12:19:25;94729.73;;;26.47;23.73
59329;BME280;45100;46.926;7.452;2023-06-14T12:21:54;94739.98;;;26.61;23.66
59329;BME280;45100;46.926;7.452;2023-06-14T12:24:28;94737.48;;;26.72;23.69
59329;BME280;45100;46.926;7.452;2023-06-14T12:26:58;94737.73;;;26.80;23.47
59329;BME280;45100;46.926;7.452;2023-06-14T12:29:26;94735.48;;;26.76;23.50
59329;BME280;45100;46.926;7.452;2023-06-14T12:31:57;94736.12;;;26.73;23.57
59329;BME280;45100;46.926;7.452;2023-06-14T12:34:27;94737.80;;;26.68;23.00
59329;BME280;45100;46.926;7.452;2023-06-14T12:36:57;94733.34;;;26.66;23.20
59329;BME280;45100;46.926;7.452;2023-06-14T12:39:28;94735.30;;;26.67;22.83
59329;BME280;45100;46.926;7.452;2023-06-14T12:41:59;94731.81;;;26.67;23.13
59329;BME280;45100;46.926;7.452;2023-06-14T12:44:29;94732.38;;;26.68;22.98
59329;BME280;45100;46.926;7.452;2023-06-14T12:47:00;94737.08;;;26.72;23.18
59329;BME280;45100;46.926;7.452;2023-06-14T12:49:30;94731.10;;;26.75;22.90
59329;BME280;45100;46.926;7.452;2023-06-14T12:52:01;94737.85;;;26.74;23.45
59329;BME280;45100;46.926;7.452;2023-06-14T12:54:31;94728.92;;;26.76;23.05
59329;BME280;45100;46.926;7.452;2023-06-14T12:57:02;94734.20;;;26.74;23.11
59329;BME280;45100;46.926;7.452;2023-06-14T12:59:34;94731.15;;;26.75;23.10
59329;BME280;45100;46.926;7.452;2023-06-14T13:02:16;94740.25;;;26.77;22.61
59329;BME280;45100;46.926;7.452;2023-06-14T13:04:34;94742.91;;;26.77;22.72
59329;BME280;45100;46.926;7.452;2023-06-14T13:07:05;94736.71;;;26.82;22.49
59329;BME280;45100;46.926;7.452;2023-06-14T13:09:35;94734.81;;;26.95;22.55
59329;BME280;45100;46.926;7.452;2023-06-14T13:12:08;94736.23;;;27.05;21.92
59329;BME280;45100;46.926;7.452;2023-06-14T13:17:09;94732.08;;;27.04;21.71
59329;BME280;45100;46.926;7.452;2023-06-14T13:19:39;94744.61;;;27.02;22.08
59329;BME280;45100;46.926;7.452;2023-06-14T13:22:10;94743.63;;;27.04;22.32
59329;BME280;45100;46.926;7.452;2023-06-14T13:24:41;94751.23;;;26.98;21.49
59329;BME280;45100;46.926;7.452;2023-06-14T13:27:12;94740.44;;;26.91;21.39
59329;BME280;45100;46.926;7.452;2023-06-14T13:29:42;94753.58;;;26.85;21.59
59329;BME280;45100;46.926;7.452;2023-06-14T13:32:13;94750.62;;;26.78;21.35
59329;BME280;45100;46.926;7.452;2023-06-14T13:34:44;94745.06;;;26.77;21.58
59329;BME280;45100;46.926;7.452;2023-06-14T13:37:15;94741.11;;;26.89;21.10
59329;BME280;45100;46.926;7.452;2023-06-14T13:39:45;94743.41;;;27.06;21.52
59329;BME280;45100;46.926;7.452;2023-06-14T13:42:15;94743.48;;;27.22;20.95
59329;BME280;45100;46.926;7.452;2023-06-14T13:44:46;94752.19;;;27.29;21.24
59329;BME280;45100;46.926;7.452;2023-06-14T13:47:17;94754.44;;;27.34;20.55
59329;BME280;45100;46.926;7.452;2023-06-14T13:49:48;94751.80;;;27.31;20.90
59329;BME280;45100;46.926;7.452;2023-06-14T13:52:18;94749.48;;;27.32;20.42
59329;BME280;45100;46.926;7.452;2023-06-14T13:54:48;94736.95;;;27.32;20.45
59329;BME280;45100;46.926;7.452;2023-06-14T13:57:19;94738.23;;;27.34;19.71
59329;BME280;45100;46.926;7.452;2023-06-14T13:59:50;94746.11;;;27.39;20.32
59329;BME280;45100;46.926;7.452;2023-06-14T14:04:54;94746.61;;;27.38;20.08
59329;BME280;45100;46.926;7.452;2023-06-14T14:07:24;94737.22;;;27.44;19.26
59329;BME280;45100;46.926;7.452;2023-06-14T14:09:58;94735.14;;;27.50;18.68
59329;BME280;45100;46.926;7.452;2023-06-14T14:12:26;94741.35;;;27.50;19.35
59329;BME280;45100;46.926;7.452;2023-06-14T14:14:56;94736.84;;;27.43;20.06
59329;BME280;45100;46.926;7.452;2023-06-14T14:17:27;94745.42;;;27.47;19.64